createdAt,value
2016-05-13T00:00:15.355Z,50.54
2016-05-13T00:01:15.514Z,50.45
2016-05-13T00:02:15.532Z,50.54
2016-05-13T00:03:15.800Z,50.45
2016-05-13T00:04:15.585Z,50.25
2016-05-13T00:05:15.713Z,50.45
2016-05-13T00:06:15.652Z,50.15
2016-05-13T00:07:15.671Z,50.25
2016-05-13T00:08:15.689Z,50.25
2016-05-13T00:09:15.551Z,50.15
2016-05-13T00:10:15.741Z,50.25
2016-05-13T00:11:15.619Z,50.25
2016-05-13T00:12:15.794Z,50.63
2016-05-13T00:13:15.827Z,50.06
2016-05-13T00:14:15.846Z,50.45
2016-05-13T00:15:15.864Z,50.06
2016-05-13T00:16:15.742Z,50.25
2016-05-13T00:17:15.931Z,50.83
2016-05-13T00:18:15.950Z,50.35
2016-05-13T00:19:15.969Z,50.45
2016-05-13T00:20:16.003Z,51.02
2016-05-13T00:21:16.021Z,50.45
2016-05-13T00:22:15.898Z,50.25
2016-05-13T00:23:16.073Z,50.35
2016-05-13T00:24:16.107Z,51.12
2016-05-13T00:25:16.156Z,50.35
2016-05-13T00:26:16.159Z,51.02
2016-05-13T00:27:16.022Z,50.83
2016-05-13T00:28:16.211Z,51.02
2016-05-13T00:29:16.230Z,51.02
2016-05-13T00:30:16.264Z,50.93
2016-05-13T00:31:16.297Z,50.93
2016-05-13T00:32:16.145Z,51.02
2016-05-13T00:33:16.334Z,51.02
2016-05-13T00:34:16.353Z,51.02
2016-05-13T00:35:16.386Z,50.63
2016-05-13T00:36:16.405Z,50.83
2016-05-13T00:37:16.438Z,50.63
2016-05-13T00:38:16.457Z,50.83
2016-05-13T00:39:16.475Z,50.93
2016-05-13T00:40:16.353Z,50.73
2016-05-13T00:41:16.528Z,50.93
2016-05-13T00:42:16.562Z,50.93
2016-05-13T00:43:16.580Z,50.93
2016-05-13T00:44:16.613Z,51.41
2016-05-13T00:45:16.632Z,51.48
2016-05-13T00:46:16.666Z,50.99
2016-05-13T00:47:16.716Z,51.12
2016-05-13T00:48:16.718Z,51.31
2016-05-13T00:49:16.737Z,50.99
2016-05-13T00:50:16.770Z,50.99
2016-05-13T00:51:16.789Z,51.09
2016-05-13T00:52:16.823Z,51.31
2016-05-13T00:53:16.841Z,51.38
2016-05-13T00:54:16.860Z,50.99
2016-05-13T00:55:16.893Z,51.02
2016-05-13T00:56:16.912Z,51.12
2016-05-13T00:57:16.946Z,50.9
2016-05-13T00:58:16.964Z,50.99
2016-05-13T00:59:16.998Z,50.99
2016-05-13T01:00:17.016Z,50.9
2016-05-13T01:01:17.061Z,50.99
2016-05-13T01:02:17.138Z,51.09
2016-05-13T01:03:17.185Z,51.38
2016-05-13T01:04:17.262Z,51.19
2016-05-13T01:05:17.324Z,51.48
2016-05-13T01:06:17.393Z,51.29
2016-05-13T01:07:17.428Z,51.29
2016-05-13T01:08:17.494Z,51.19
2016-05-13T01:09:17.512Z,51.09
2016-05-13T01:10:17.561Z,51.29
2016-05-13T01:11:17.593Z,51.48
2016-05-13T01:12:17.616Z,51.86
2016-05-13T01:13:17.656Z,51.29
2016-05-13T01:14:17.680Z,51.57
2016-05-13T01:15:17.720Z,51.57
2016-05-13T01:16:17.742Z,51.57
2016-05-13T01:17:18.231Z,51.57
2016-05-13T01:18:17.798Z,51.57
2016-05-13T01:19:17.833Z,51.38
2016-05-13T01:20:17.698Z,51.48
2016-05-13T01:21:17.889Z,51.57
2016-05-13T01:22:17.909Z,51.48
2016-05-13T01:23:17.943Z,51.48
2016-05-13T01:24:17.963Z,51.57
2016-05-13T01:25:17.998Z,51.76
2016-05-13T01:26:18.016Z,51.48
2016-05-13T01:27:18.051Z,51.76
2016-05-13T01:28:17.913Z,51.67
2016-05-13T01:29:17.931Z,51.57
2016-05-13T01:30:18.122Z,51.57
2016-05-13T01:31:18.141Z,51.57
2016-05-13T01:32:18.018Z,51.48
2016-05-13T01:33:18.193Z,51.67
2016-05-13T01:34:18.210Z,51.67
2016-05-13T01:35:18.245Z,51.67
2016-05-13T01:36:18.280Z,51.48
2016-05-13T01:37:18.298Z,52.06
2016-05-13T01:38:18.316Z,51.96
2016-05-13T01:39:18.349Z,51.96
2016-05-13T01:40:18.368Z,52.15
2016-05-13T01:41:18.387Z,51.96
2016-05-13T01:42:18.420Z,52.06
2016-05-13T01:43:18.454Z,52.44
2016-05-13T01:44:18.473Z,52.15
2016-05-13T01:45:18.506Z,52.15
2016-05-13T01:46:18.525Z,52.44
2016-05-13T01:47:18.543Z,52.34
2016-05-13T01:48:18.578Z,51.96
2016-05-13T01:49:18.596Z,52.44
2016-05-13T01:50:18.629Z,52.44
2016-05-13T01:51:18.648Z,52.06
2016-05-13T01:52:18.666Z,51.96
2016-05-13T01:53:18.716Z,52.15
2016-05-13T01:54:18.718Z,51.96
2016-05-13T01:55:18.752Z,52.15
2016-05-13T01:56:18.770Z,51.96
2016-05-13T01:57:18.805Z,52.06
2016-05-13T01:58:18.823Z,52.15
2016-05-13T01:59:18.700Z,52.15
2016-05-13T02:00:18.875Z,52.06
2016-05-13T02:01:18.908Z,51.86
2016-05-13T02:02:18.911Z,52.15
2016-05-13T02:03:18.805Z,51.86
2016-05-13T02:04:18.980Z,52.06
2016-05-13T02:05:18.998Z,52.15
2016-05-13T02:06:19.032Z,52.06
2016-05-13T02:07:19.049Z,52.25
2016-05-13T02:08:19.069Z,52.15
2016-05-13T02:09:19.102Z,52.25
2016-05-13T02:10:19.137Z,51.96
2016-05-13T02:11:19.155Z,52.06
2016-05-13T02:12:19.173Z,52.63
2016-05-13T02:13:19.206Z,52.63
2016-05-13T02:14:19.225Z,52.8
2016-05-13T02:15:19.104Z,52.61
2016-05-13T02:16:19.278Z,52.34
2016-05-13T02:17:19.531Z,52.73
2016-05-13T02:18:19.329Z,52.61
2016-05-13T02:19:19.347Z,52.8
2016-05-13T02:20:19.381Z,52.61
2016-05-13T02:21:19.400Z,52.42
2016-05-13T02:22:19.434Z,52.42
2016-05-13T02:23:19.468Z,52.51
2016-05-13T02:24:19.502Z,52.51
2016-05-13T02:25:19.505Z,52.32
2016-05-13T02:26:19.523Z,52.32
2016-05-13T02:27:19.557Z,52.51
2016-05-13T02:28:19.419Z,52.51
2016-05-13T02:29:19.609Z,52.34
2016-05-13T02:30:19.628Z,52.54
2016-05-13T02:31:19.661Z,52.61
2016-05-13T02:32:19.680Z,52.61
2016-05-13T02:33:19.713Z,52.42
2016-05-13T02:34:19.732Z,52.61
2016-05-13T02:35:19.749Z,52.61
2016-05-13T02:36:19.784Z,52.51
2016-05-13T02:37:19.803Z,52.61
2016-05-13T02:38:19.821Z,52.7
2016-05-13T02:39:19.855Z,52.51
2016-05-13T02:40:19.888Z,52.61
2016-05-13T02:41:19.907Z,52.7
2016-05-13T02:42:19.941Z,52.61
2016-05-13T02:43:19.959Z,52.99
2016-05-13T02:44:19.978Z,52.89
2016-05-13T02:45:20.012Z,52.89
2016-05-13T02:46:20.029Z,52.89
2016-05-13T02:47:20.407Z,52.99
2016-05-13T02:48:20.082Z,52.89
2016-05-13T02:49:20.117Z,52.89
2016-05-13T02:50:19.979Z,52.99
2016-05-13T02:51:20.153Z,52.99
2016-05-13T02:52:20.186Z,52.99
2016-05-13T02:53:20.205Z,52.7
2016-05-13T02:54:20.239Z,52.8
2016-05-13T02:55:20.257Z,52.99
2016-05-13T02:56:20.276Z,53.09
2016-05-13T02:57:20.309Z,53.09
2016-05-13T02:58:20.328Z,52.99
2016-05-13T02:59:20.361Z,52.89
2016-05-13T03:00:20.380Z,52.99
2016-05-13T03:01:20.399Z,52.89
2016-05-13T03:02:20.291Z,52.8
2016-05-13T03:03:20.466Z,52.99
2016-05-13T03:04:20.485Z,52.99
2016-05-13T03:05:20.503Z,52.89
2016-05-13T03:06:20.380Z,52.89
2016-05-13T03:07:20.555Z,52.7
2016-05-13T03:08:20.589Z,52.89
2016-05-13T03:09:20.608Z,52.8
2016-05-13T03:10:20.641Z,52.89
2016-05-13T03:11:20.660Z,53.38
2016-05-13T03:12:20.678Z,53.19
2016-05-13T03:13:20.712Z,53.09
2016-05-13T03:14:20.730Z,53.09
2016-05-13T03:15:20.748Z,52.8
2016-05-13T03:16:20.782Z,53.19
2016-05-13T03:17:20.817Z,53.09
2016-05-13T03:18:20.850Z,52.89
2016-05-13T03:19:20.868Z,53.19
2016-05-13T03:20:20.886Z,52.99
2016-05-13T03:21:20.905Z,53.47
2016-05-13T03:22:20.940Z,53.47
2016-05-13T03:23:20.958Z,53.47
2016-05-13T03:24:20.820Z,53.47
2016-05-13T03:25:20.853Z,53.38
2016-05-13T03:26:21.028Z,53.38
2016-05-13T03:27:21.062Z,53.28
2016-05-13T03:28:21.080Z,53.57
2016-05-13T03:29:21.099Z,53.19
2016-05-13T03:30:20.977Z,53.57
2016-05-13T03:31:21.166Z,53.47
2016-05-13T03:32:21.044Z,53.38
2016-05-13T03:33:21.047Z,53.66
2016-05-13T03:34:21.081Z,53.38
2016-05-13T03:35:21.116Z,53.47
2016-05-13T03:36:21.289Z,53.47
2016-05-13T03:37:21.308Z,53.38
2016-05-13T03:38:21.326Z,53.28
2016-05-13T03:39:21.360Z,53.38
2016-05-13T03:40:21.378Z,53.38
2016-05-13T03:41:21.413Z,53.38
2016-05-13T03:42:21.430Z,53.47
2016-05-13T03:43:21.465Z,53.28
2016-05-13T03:44:21.483Z,53.38
2016-05-13T03:45:21.501Z,53.38
2016-05-13T03:46:21.535Z,53.28
2016-05-13T03:47:21.569Z,53.38
2016-05-13T03:48:21.431Z,53.47
2016-05-13T03:49:21.606Z,53.38
2016-05-13T03:50:21.640Z,53.47
2016-05-13T03:51:21.658Z,53.38
2016-05-13T03:52:21.676Z,53.38
2016-05-13T03:53:21.710Z,53.38
2016-05-13T03:54:21.729Z,53.47
2016-05-13T03:55:21.747Z,53.38
2016-05-13T03:56:21.781Z,53.28
2016-05-13T03:57:21.799Z,53.28
2016-05-13T03:58:21.833Z,53.47
2016-05-13T03:59:21.867Z,53.38
2016-05-13T04:00:21.885Z,53.38
2016-05-13T04:01:21.748Z,53.19
2016-05-13T04:02:21.781Z,53.38
2016-05-13T04:03:21.956Z,53.28
2016-05-13T04:04:21.974Z,53.09
2016-05-13T04:05:22.008Z,53.19
2016-05-13T04:06:22.026Z,53.09
2016-05-13T04:07:22.061Z,53.38
2016-05-13T04:08:22.094Z,53.38
2016-05-13T04:09:22.097Z,53.38
2016-05-13T04:10:22.130Z,53.47
2016-05-13T04:11:22.165Z,53.28
2016-05-13T04:12:22.183Z,53.38
2016-05-13T04:13:22.202Z,53.28
2016-05-13T04:14:22.220Z,53.28
2016-05-13T04:15:22.254Z,53.28
2016-05-13T04:16:22.271Z,53.38
2016-05-13T04:17:22.306Z,53.19
2016-05-13T04:18:22.324Z,53.47
2016-05-13T04:19:22.359Z,53.19
2016-05-13T04:20:22.377Z,53.19
2016-05-13T04:21:22.426Z,53.28
2016-05-13T04:22:22.429Z,53.57
2016-05-13T04:23:22.447Z,53.09
2016-05-13T04:24:22.481Z,53.38
2016-05-13T04:25:22.514Z,53.38
2016-05-13T04:26:22.518Z,53.38
2016-05-13T04:27:22.395Z,53.28
2016-05-13T04:28:22.586Z,53.47
2016-05-13T04:29:22.604Z,53.19
2016-05-13T04:30:22.638Z,53.38
2016-05-13T04:31:22.500Z,53.38
2016-05-13T04:32:22.518Z,53.19
2016-05-13T04:33:22.692Z,53.28
2016-05-13T04:34:22.727Z,53.47
2016-05-13T04:35:22.745Z,53.19
2016-05-13T04:36:22.779Z,53.47
2016-05-13T04:37:22.641Z,53.28
2016-05-13T04:38:22.847Z,53.28
2016-05-13T04:39:22.850Z,53.38
2016-05-13T04:40:22.883Z,53.57
2016-05-13T04:41:22.902Z,53.66
2016-05-13T04:42:22.920Z,53.47
2016-05-13T04:43:22.954Z,52.89
2016-05-13T04:44:22.987Z,53.76
2016-05-13T04:45:23.007Z,53.47
2016-05-13T04:46:23.025Z,53.19
2016-05-13T04:47:23.324Z,52.7
2016-05-13T04:48:23.076Z,52.89
2016-05-13T04:49:23.095Z,52.89
2016-05-13T04:50:23.128Z,52.89
2016-05-13T04:51:23.147Z,53.09
2016-05-13T04:52:23.182Z,52.89
2016-05-13T04:53:23.200Z,52.99
2016-05-13T04:54:23.217Z,53.09
2016-05-13T04:55:23.251Z,52.8
2016-05-13T04:56:23.270Z,52.61
2016-05-13T04:57:23.304Z,52.61
2016-05-13T04:58:23.323Z,52.42
2016-05-13T04:59:23.200Z,52.51
2016-05-13T05:00:23.375Z,52.54
2016-05-13T05:01:23.252Z,51.93
2016-05-13T05:02:23.849Z,52.15
2016-05-13T05:03:23.445Z,51.96
2016-05-13T05:04:23.464Z,52.15
2016-05-13T05:05:23.498Z,52.06
2016-05-13T05:06:23.516Z,52.06
2016-05-13T05:07:23.566Z,51.38
2016-05-13T05:08:23.568Z,51.57
2016-05-13T05:09:23.602Z,51.67
2016-05-13T05:10:23.620Z,51.48
2016-05-13T05:11:23.639Z,51.38
2016-05-13T05:12:23.672Z,51.57
2016-05-13T05:13:23.691Z,51.19
2016-05-13T05:14:23.725Z,50.99
2016-05-13T05:15:23.743Z,51.19
2016-05-13T05:16:23.777Z,51.19
2016-05-13T05:17:23.795Z,51.19
2016-05-13T05:18:23.813Z,51.19
2016-05-13T05:19:23.848Z,50.99
2016-05-13T05:20:23.866Z,51.29
2016-05-13T05:21:23.900Z,50.71
2016-05-13T05:22:23.778Z,50.81
2016-05-13T05:23:23.951Z,50.9
2016-05-13T05:24:23.971Z,50.9
2016-05-13T05:25:23.989Z,50.25
2016-05-13T05:26:23.867Z,50.25
2016-05-13T05:27:24.056Z,50.73
2016-05-13T05:28:23.919Z,50.45
2016-05-13T05:29:24.092Z,50.25
2016-05-13T05:30:24.127Z,49.96
2016-05-13T05:31:24.162Z,49.87
2016-05-13T05:32:24.180Z,49.68
2016-05-13T05:33:24.198Z,49.41
2016-05-13T05:34:24.231Z,49.41
2016-05-13T05:35:24.250Z,49.6
2016-05-13T05:36:24.128Z,48.83
2016-05-13T05:37:24.302Z,49.02
2016-05-13T05:38:24.336Z,48.64
2016-05-13T05:39:24.355Z,48.44
2016-05-13T05:40:24.389Z,48.66
2016-05-13T05:41:24.407Z,48.66
2016-05-13T05:42:24.441Z,48.08
2016-05-13T05:43:24.474Z,47.89
2016-05-13T05:44:24.493Z,47.51
2016-05-13T05:45:24.526Z,47.6
2016-05-13T05:46:24.545Z,47.12
2016-05-13T05:47:24.424Z,47.34
2016-05-13T05:48:24.598Z,46.56
2016-05-13T05:49:24.460Z,46.56
2016-05-13T05:50:24.665Z,46.18
2016-05-13T05:51:24.684Z,46.08
2016-05-13T05:52:24.718Z,46.01
2016-05-13T05:53:24.751Z,45.92
2016-05-13T05:54:24.754Z,45.43
2016-05-13T05:55:24.787Z,45.34
2016-05-13T05:56:24.838Z,44.78
2016-05-13T05:57:24.684Z,44.39
2016-05-13T05:58:24.859Z,44.01
2016-05-13T05:59:24.924Z,44.01
2016-05-13T06:00:24.926Z,43.72
2016-05-13T06:01:24.945Z,43.52
2016-05-13T06:02:24.994Z,43.33
2016-05-13T06:03:24.997Z,43.45
2016-05-13T06:04:25.031Z,42.87
2016-05-13T06:05:25.065Z,42.39
2016-05-13T06:06:25.083Z,42.5
2016-05-13T06:07:25.117Z,42.21
2016-05-13T06:08:24.995Z,42.31
2016-05-13T06:09:25.014Z,41.44
2016-05-13T06:10:25.203Z,41.54
2016-05-13T06:11:25.221Z,41.54
2016-05-13T06:12:25.255Z,40.88
2016-05-13T06:13:25.274Z,41.08
2016-05-13T06:14:25.308Z,40.69
2016-05-13T06:15:25.341Z,40.98
2016-05-13T06:16:26.173Z,40.11
2016-05-13T06:17:25.394Z,39.72
2016-05-13T06:18:25.413Z,40.13
2016-05-13T06:19:25.291Z,39.94
2016-05-13T06:20:25.465Z,39.64
2016-05-13T06:21:25.499Z,39.36
2016-05-13T06:22:25.533Z,39.16
2016-05-13T06:23:25.551Z,38.97
2016-05-13T06:24:25.585Z,39.09
2016-05-13T06:25:25.618Z,38.7
2016-05-13T06:26:25.637Z,38.89
2016-05-13T06:27:25.671Z,39.18
2016-05-13T06:28:25.706Z,38.5
2016-05-13T06:29:25.723Z,38.31
2016-05-13T06:30:25.757Z,38.12
2016-05-13T06:31:25.806Z,38.31
2016-05-13T06:32:25.810Z,37.73
2016-05-13T06:33:25.844Z,37.75
2016-05-13T06:34:25.861Z,37.85
2016-05-13T06:35:25.895Z,37.26
2016-05-13T06:36:25.930Z,37.46
2016-05-13T06:37:25.947Z,37.17
2016-05-13T06:38:25.983Z,37.26
2016-05-13T06:39:26.016Z,37.17
2016-05-13T06:40:26.033Z,36.99
2016-05-13T06:41:25.911Z,36.8
2016-05-13T06:42:26.103Z,36.51
2016-05-13T06:43:26.120Z,36.51
2016-05-13T06:44:26.154Z,36.22
2016-05-13T06:45:26.172Z,36.41
2016-05-13T06:46:26.222Z,36.12
2016-05-13T06:47:26.085Z,36.22
2016-05-13T06:48:26.274Z,36.12
2016-05-13T06:49:26.137Z,35.94
2016-05-13T06:50:26.389Z,36.14
2016-05-13T06:51:26.360Z,36.04
2016-05-13T06:52:26.379Z,35.75
2016-05-13T06:53:26.412Z,36.14
2016-05-13T06:54:26.446Z,35.94
2016-05-13T06:55:26.465Z,35.46
2016-05-13T06:56:26.499Z,35.75
2016-05-13T06:57:26.377Z,35.36
2016-05-13T06:58:26.551Z,35.36
2016-05-13T06:59:26.584Z,35.38
2016-05-13T07:00:26.620Z,35.36
2016-05-13T07:01:26.654Z,35.09
2016-05-13T07:02:26.531Z,35.38
2016-05-13T07:03:26.706Z,35.28
2016-05-13T07:04:26.739Z,35.09
2016-05-13T07:05:26.773Z,35.09
2016-05-13T07:06:26.792Z,35.28
2016-05-13T07:07:26.841Z,35.19
2016-05-13T07:08:26.844Z,34.8
2016-05-13T07:09:26.893Z,34.7
2016-05-13T07:10:26.912Z,34.51
2016-05-13T07:11:26.946Z,34.12
2016-05-13T07:12:26.963Z,34.41
2016-05-13T07:13:26.998Z,34.61
2016-05-13T07:14:27.032Z,34.31
2016-05-13T07:15:27.050Z,34.51
2016-05-13T07:16:27.085Z,34.41
2016-05-13T07:17:26.962Z,34.61
2016-05-13T07:18:27.151Z,34.43
2016-05-13T07:19:27.186Z,34.14
2016-05-13T07:20:27.204Z,34.14
2016-05-13T07:21:27.238Z,34.23
2016-05-13T07:22:27.272Z,34.14
2016-05-13T07:23:27.307Z,34.04
2016-05-13T07:24:27.168Z,33.75
2016-05-13T07:25:27.358Z,33.84
2016-05-13T07:26:27.424Z,33.65
2016-05-13T07:27:27.270Z,33.84
2016-05-13T07:28:27.445Z,34.04
2016-05-13T07:29:27.479Z,33.75
2016-05-13T07:30:27.497Z,33.65
2016-05-13T07:31:27.531Z,33.56
2016-05-13T07:32:28.674Z,33.18
2016-05-13T07:33:27.442Z,33.17
2016-05-13T07:34:27.679Z,33.57
2016-05-13T07:35:27.666Z,33.28
2016-05-13T07:36:27.684Z,33.26
2016-05-13T07:37:27.562Z,33.09
2016-05-13T07:38:27.753Z,32.89
2016-05-13T07:39:27.614Z,33.18
2016-05-13T07:40:27.820Z,33.18
2016-05-13T07:41:27.839Z,33.09
2016-05-13T07:42:27.873Z,32.99
2016-05-13T07:43:27.908Z,32.89
2016-05-13T07:44:27.925Z,32.89
2016-05-13T07:45:27.958Z,32.7
2016-05-13T07:46:27.993Z,32.5
2016-05-13T07:47:28.027Z,32.41
2016-05-13T07:48:28.061Z,32.62
2016-05-13T07:49:28.080Z,32.42
2016-05-13T07:50:28.113Z,32.62
2016-05-13T07:51:28.147Z,32.42
2016-05-13T07:52:28.182Z,32.42
2016-05-13T07:53:28.199Z,32.04
2016-05-13T07:54:28.233Z,32.42
2016-05-13T07:55:28.110Z,32.32
2016-05-13T07:56:28.301Z,32.32
2016-05-13T07:57:28.320Z,32.52
2016-05-13T07:58:28.354Z,32.32
2016-05-13T07:59:28.465Z,32.52
2016-05-13T08:00:28.421Z,32.42
2016-05-13T08:01:28.284Z,32.42
2016-05-13T08:02:28.567Z,32.42
2016-05-13T08:03:28.507Z,32.23
2016-05-13T08:04:29.041Z,32.42
2016-05-13T08:05:29.154Z,32.13
2016-05-13T08:06:28.594Z,32.32
2016-05-13T08:07:28.628Z,32.32
2016-05-13T08:08:28.646Z,32.23
2016-05-13T08:09:28.696Z,32.23
2016-05-13T08:10:28.714Z,32.42
2016-05-13T08:11:28.591Z,32.32
2016-05-13T08:12:28.781Z,32.42
2016-05-13T08:13:28.800Z,32.52
2016-05-13T08:14:28.834Z,32.32
2016-05-13T08:15:28.712Z,32.23
2016-05-13T08:16:28.886Z,32.04
2016-05-13T08:17:28.920Z,32.23
2016-05-13T08:18:28.955Z,32.04
2016-05-13T08:19:28.988Z,32.62
2016-05-13T08:20:29.022Z,32.42
2016-05-13T08:21:29.040Z,32.42
2016-05-13T08:22:29.075Z,32.41
2016-05-13T08:23:29.124Z,32.7
2016-05-13T08:24:29.126Z,32.5
2016-05-13T08:25:29.161Z,32.6
2016-05-13T08:26:29.194Z,32.31
2016-05-13T08:27:29.229Z,32.7
2016-05-13T08:28:29.090Z,32.99
2016-05-13T08:29:29.281Z,32.79
2016-05-13T08:30:29.315Z,32.99
2016-05-13T08:31:29.176Z,32.89
2016-05-13T08:32:29.382Z,32.99
2016-05-13T08:33:29.401Z,33.28
2016-05-13T08:34:29.434Z,33.26
2016-05-13T08:35:29.484Z,32.97
2016-05-13T08:36:29.487Z,33.28
2016-05-13T08:37:29.521Z,33.17
2016-05-13T08:38:29.540Z,33.56
2016-05-13T08:39:29.573Z,33.26
2016-05-13T08:40:29.607Z,33.46
2016-05-13T08:41:29.641Z,33.56
2016-05-13T08:42:29.503Z,33.84
2016-05-13T08:43:29.694Z,33.84
2016-05-13T08:44:29.727Z,33.84
2016-05-13T08:45:29.745Z,33.65
2016-05-13T08:46:29.780Z,34.33
2016-05-13T08:47:30.220Z,34.23
2016-05-13T08:48:29.832Z,34.02
2016-05-13T08:49:29.866Z,33.92
2016-05-13T08:50:29.899Z,34.31
2016-05-13T08:51:29.933Z,34.41
2016-05-13T08:52:29.968Z,34.41
2016-05-13T08:53:30.033Z,34.31
2016-05-13T08:54:30.019Z,34.12
2016-05-13T08:55:30.054Z,34.31
2016-05-13T08:56:30.072Z,34.31
2016-05-13T08:57:30.106Z,34.8
2016-05-13T08:58:30.140Z,34.7
2016-05-13T08:59:30.158Z,35.28
2016-05-13T09:00:30.193Z,34.88
2016-05-13T09:01:30.226Z,34.69
2016-05-13T09:02:30.495Z,35.17
2016-05-13T09:03:30.278Z,35.07
2016-05-13T09:04:30.312Z,35.27
2016-05-13T09:05:30.346Z,35.56
2016-05-13T09:06:30.223Z,35.36
2016-05-13T09:07:30.398Z,35.07
2016-05-13T09:08:30.432Z,35.46
2016-05-13T09:09:30.451Z,35.07
2016-05-13T09:10:30.484Z,35.66
2016-05-13T09:11:30.534Z,35.75
2016-05-13T09:12:30.537Z,35.56
2016-05-13T09:13:30.571Z,35.46
2016-05-13T09:14:30.605Z,35.93
2016-05-13T09:15:30.639Z,36.12
2016-05-13T09:16:30.498Z,36.12
2016-05-13T09:17:30.691Z,35.83
2016-05-13T09:18:30.725Z,36.02
2016-05-13T09:19:30.759Z,35.93
2016-05-13T09:20:30.619Z,35.73
2016-05-13T09:21:30.811Z,36.02
2016-05-13T09:22:30.830Z,36.02
2016-05-13T09:23:30.863Z,35.93
2016-05-13T09:24:30.897Z,36.02
2016-05-13T09:25:30.772Z,35.73
2016-05-13T09:26:30.950Z,36.02
2016-05-13T09:27:30.983Z,36.12
2016-05-13T09:28:31.018Z,36.12
2016-05-13T09:29:31.035Z,36.32
2016-05-13T09:30:31.070Z,36.02
2016-05-13T09:31:31.088Z,36.51
2016-05-13T09:32:30.963Z,36.51
2016-05-13T09:33:30.997Z,36.22
2016-05-13T09:34:31.190Z,36.51
2016-05-13T09:35:31.209Z,36.51
2016-05-13T09:36:31.242Z,36.6
2016-05-13T09:37:31.260Z,36.49
2016-05-13T09:38:31.309Z,36.58
2016-05-13T09:39:31.345Z,36.58
2016-05-13T09:40:31.362Z,36.58
2016-05-13T09:41:31.381Z,36.49
2016-05-13T09:42:31.727Z,36.88
2016-05-13T09:43:31.808Z,36.98
2016-05-13T09:44:31.483Z,36.68
2016-05-13T09:45:31.500Z,36.88
2016-05-13T09:46:31.534Z,37.17
2016-05-13T09:47:32.069Z,37.07
2016-05-13T09:48:31.649Z,36.98
2016-05-13T09:49:32.386Z,37.17
2016-05-13T09:50:31.636Z,36.98
2016-05-13T09:51:31.670Z,37.26
2016-05-13T09:52:31.704Z,37.26
2016-05-13T09:53:31.722Z,37.75
2016-05-13T09:54:31.600Z,37.65
2016-05-13T09:55:31.790Z,37.65
2016-05-13T09:56:31.824Z,37.55
2016-05-13T09:57:31.843Z,37.44
2016-05-13T09:58:31.892Z,37.15
2016-05-13T09:59:31.911Z,37.55
2016-05-13T10:00:31.929Z,37.63
2016-05-13T10:01:31.963Z,37.34
2016-05-13T10:02:31.996Z,37.63
2016-05-13T10:03:32.015Z,37.82
2016-05-13T10:04:32.049Z,37.92
2016-05-13T10:05:32.082Z,37.73
2016-05-13T10:06:32.101Z,37.82
2016-05-13T10:07:32.135Z,37.73
2016-05-13T10:08:32.172Z,38.12
2016-05-13T10:09:32.265Z,37.73
2016-05-13T10:10:32.325Z,37.73
2016-05-13T10:11:32.403Z,38.21
2016-05-13T10:12:32.463Z,37.73
2016-05-13T10:13:32.529Z,37.73
2016-05-13T10:14:32.562Z,38.21
2016-05-13T10:15:32.611Z,37.92
2016-05-13T10:16:32.660Z,38.31
2016-05-13T10:17:32.710Z,38.12
2016-05-13T10:18:32.739Z,38.12
2016-05-13T10:19:32.778Z,38.12
2016-05-13T10:20:32.817Z,38.21
2016-05-13T10:21:32.841Z,38.41
2016-05-13T10:22:32.880Z,38.31
2016-05-13T10:23:32.918Z,38.5
2016-05-13T10:24:32.938Z,38.31
2016-05-13T10:25:32.974Z,38.2
2016-05-13T10:26:33.010Z,38.5
2016-05-13T10:27:33.047Z,38.29
2016-05-13T10:28:33.081Z,38.29
2016-05-13T10:29:33.100Z,38.21
2016-05-13T10:30:33.135Z,38.6
2016-05-13T10:31:33.153Z,38.6
2016-05-13T10:32:33.548Z,38.31
2016-05-13T10:33:33.974Z,38.5
2016-05-13T10:34:33.241Z,38.97
2016-05-13T10:35:33.260Z,38.87
2016-05-13T10:36:33.311Z,38.87
2016-05-13T10:37:33.330Z,38.87
2016-05-13T10:38:33.363Z,38.78
2016-05-13T10:39:33.241Z,38.99
2016-05-13T10:40:33.416Z,38.87
2016-05-13T10:41:33.450Z,38.87
2016-05-13T10:42:33.468Z,38.97
2016-05-13T10:43:33.502Z,38.97
2016-05-13T10:44:35.661Z,38.87
2016-05-13T10:45:33.554Z,38.87
2016-05-13T10:46:33.588Z,38.78
2016-05-13T10:47:33.621Z,38.58
2016-05-13T10:48:33.655Z,38.68
2016-05-13T10:49:33.518Z,38.87
2016-05-13T10:50:33.990Z,38.87
2016-05-13T10:51:33.727Z,38.87
2016-05-13T10:52:33.761Z,38.68
2016-05-13T10:53:33.779Z,39.06
2016-05-13T10:54:33.812Z,39.16
2016-05-13T10:55:33.846Z,38.68
2016-05-13T10:56:33.865Z,38.78
2016-05-13T10:57:33.914Z,39.36
2016-05-13T10:58:33.933Z,39.36
2016-05-13T10:59:33.967Z,39.26
2016-05-13T11:00:33.984Z,39.16
2016-05-13T11:01:34.019Z,39.06
2016-05-13T11:02:34.068Z,39.36
2016-05-13T11:03:34.071Z,39.16
2016-05-13T11:04:33.933Z,39.26
2016-05-13T11:05:33.983Z,39.06
2016-05-13T11:06:34.158Z,39.06
2016-05-13T11:07:34.191Z,38.78
2016-05-13T11:08:34.209Z,39.26
2016-05-13T11:09:34.244Z,39.06
2016-05-13T11:10:34.122Z,38.68
2016-05-13T11:11:34.296Z,39.06
2016-05-13T11:12:34.330Z,39.26
2016-05-13T11:13:34.348Z,39.16
2016-05-13T11:14:34.382Z,39.26
2016-05-13T11:15:34.416Z,39.26
2016-05-13T11:16:34.434Z,39.26
2016-05-13T11:17:35.046Z,38.87
2016-05-13T11:18:34.518Z,39.06
2016-05-13T11:19:34.521Z,39.26
2016-05-13T11:20:34.554Z,38.97
2016-05-13T11:21:34.588Z,39.16
2016-05-13T11:22:34.622Z,38.48
2016-05-13T11:23:34.657Z,39.16
2016-05-13T11:24:34.674Z,39.06
2016-05-13T11:25:34.693Z,38.78
2016-05-13T11:26:34.727Z,38.97
2016-05-13T11:27:36.682Z,39.16
2016-05-13T11:28:34.779Z,38.68
2016-05-13T11:29:34.813Z,39.16
2016-05-13T11:30:34.831Z,38.97
2016-05-13T11:31:34.865Z,38.87
2016-05-13T11:32:34.899Z,38.87
2016-05-13T11:33:35.011Z,39.06
2016-05-13T11:34:34.951Z,38.87
2016-05-13T11:35:34.986Z,39.06
2016-05-13T11:36:35.003Z,38.87
2016-05-13T11:37:35.037Z,38.87
2016-05-13T11:38:35.056Z,38.87
2016-05-13T11:39:35.090Z,38.87
2016-05-13T11:40:35.124Z,39.06
2016-05-13T11:41:35.158Z,39.06
2016-05-13T11:42:35.175Z,39.06
2016-05-13T11:43:35.194Z,38.87
2016-05-13T11:44:35.228Z,39.16
2016-05-13T11:45:35.262Z,38.87
2016-05-13T11:46:35.296Z,38.87
2016-05-13T11:47:35.346Z,38.97
2016-05-13T11:48:35.349Z,38.87
2016-05-13T11:49:35.367Z,39.06
2016-05-13T11:50:35.402Z,38.87
2016-05-13T11:51:35.435Z,39.06
2016-05-13T11:52:35.312Z,38.97
2016-05-13T11:53:35.487Z,38.87
2016-05-13T11:54:35.365Z,38.78
2016-05-13T11:55:35.540Z,39.06
2016-05-13T11:56:35.573Z,39.06
2016-05-13T11:57:35.607Z,38.87
2016-05-13T11:58:35.626Z,38.78
2016-05-13T11:59:35.659Z,38.68
2016-05-13T12:00:35.693Z,38.97
2016-05-13T12:01:35.711Z,38.87
2016-05-13T12:02:35.746Z,39.06
2016-05-13T12:03:35.623Z,38.87
2016-05-13T12:04:35.798Z,39.16
2016-05-13T12:05:35.832Z,38.68
2016-05-13T12:06:35.865Z,39.06
2016-05-13T12:07:56.106Z,38.97
2016-05-13T12:08:35.918Z,38.78
2016-05-13T12:09:35.936Z,39.06
2016-05-13T12:10:35.970Z,39.16
2016-05-13T12:11:36.004Z,38.87
2016-05-13T12:12:36.022Z,38.97
2016-05-13T12:13:36.056Z,39.06
2016-05-13T12:14:36.090Z,38.48
2016-05-13T12:15:36.124Z,39.06
2016-05-13T12:16:36.142Z,39.06
2016-05-13T12:17:36.942Z,38.97
2016-05-13T12:18:36.194Z,39.16
2016-05-13T12:19:36.229Z,38.87
2016-05-13T12:20:36.263Z,38.68
2016-05-13T12:21:36.281Z,38.68
2016-05-13T12:22:36.315Z,38.87
2016-05-13T12:23:36.333Z,39.16
2016-05-13T12:24:36.367Z,38.58
2016-05-13T12:25:36.386Z,38.68
2016-05-13T12:26:36.435Z,38.87
2016-05-13T12:27:36.297Z,38.97
2016-05-13T12:28:36.488Z,38.68
2016-05-13T12:29:36.506Z,39.06
2016-05-13T12:30:36.540Z,39.06
2016-05-13T12:31:36.418Z,38.78
2016-05-13T12:32:37.060Z,38.87
2016-05-13T12:33:36.626Z,38.87
2016-05-13T12:34:36.645Z,38.78
2016-05-13T12:35:36.678Z,39.06
2016-05-13T12:36:36.728Z,39.06
2016-05-13T12:37:36.746Z,39.06
2016-05-13T12:38:36.764Z,38.87
2016-05-13T12:39:36.799Z,38.87
2016-05-13T12:40:36.817Z,38.87
2016-05-13T12:41:36.850Z,38.87
2016-05-13T12:42:36.870Z,38.97
2016-05-13T12:43:36.903Z,38.87
2016-05-13T12:44:36.937Z,39.06
2016-05-13T12:45:36.956Z,38.68
2016-05-13T12:46:36.989Z,39.16
2016-05-13T12:47:37.086Z,39.06
2016-05-13T12:48:37.041Z,39.16
2016-05-13T12:49:37.075Z,39.06
2016-05-13T12:50:37.109Z,39.06
2016-05-13T12:51:37.127Z,38.87
2016-05-13T12:52:37.177Z,38.87
2016-05-13T12:53:37.196Z,38.97